createdAt,value
2023-02-04T00:00:54.801Z,0
2023-02-04T00:02:11.100Z,0
2023-02-04T00:03:27.384Z,0
2023-02-04T00:04:43.692Z,0
2023-02-04T00:05:59.983Z,0
2023-02-04T00:07:16.265Z,0
2023-02-04T00:08:32.558Z,0
2023-02-04T00:09:48.859Z,0
2023-02-04T00:12:21.446Z,0
2023-02-04T00:13:36.760Z,0
2023-02-04T00:14:53.038Z,0
2023-02-04T00:16:09.342Z,0
2023-02-04T00:17:25.623Z,0
2023-02-04T00:18:41.912Z,0
2023-02-04T00:19:58.216Z,0
2023-02-04T00:21:14.513Z,0
2023-02-04T00:22:30.800Z,0
2023-02-04T00:23:47.101Z,0
2023-02-04T00:25:03.394Z,0
2023-02-04T00:26:19.687Z,0
2023-02-04T00:27:35.970Z,0
2023-02-04T00:28:52.258Z,0
2023-02-04T00:30:07.582Z,0
2023-02-04T00:31:23.860Z,0
2023-02-04T00:32:40.167Z,0
2023-02-04T00:33:56.464Z,0
2023-02-04T00:35:12.745Z,0
2023-02-04T00:36:29.039Z,0
2023-02-04T00:37:45.341Z,0
2023-02-04T00:39:01.629Z,0
2023-02-04T00:40:17.926Z,0
2023-02-04T00:41:34.218Z,0
2023-02-04T00:42:50.515Z,0
2023-02-04T00:44:06.808Z,0
2023-02-04T00:45:23.097Z,0
2023-02-04T00:46:38.408Z,0
2023-02-04T00:47:54.693Z,0
2023-02-04T00:49:10.984Z,0
2023-02-04T00:50:27.280Z,0
2023-02-04T00:51:43.586Z,0
2023-02-04T00:54:15.186Z,0
2023-02-04T00:55:30.508Z,0
2023-02-04T00:56:46.794Z,0
2023-02-04T00:58:03.098Z,0
2023-02-04T00:59:19.378Z,0
2023-02-04T01:00:35.671Z,0
2023-02-04T01:01:51.965Z,0
2023-02-04T01:03:08.253Z,0
2023-02-04T01:04:24.554Z,0
2023-02-04T01:05:40.850Z,0
2023-02-04T01:06:57.139Z,0
2023-02-04T01:08:13.423Z,0
2023-02-04T01:09:29.730Z,0
2023-02-04T01:10:46.017Z,0
2023-02-04T01:12:01.325Z,0
2023-02-04T01:13:17.629Z,0
2023-02-04T01:14:33.921Z,0
2023-02-04T01:15:50.214Z,0
2023-02-04T01:17:06.504Z,0
2023-02-04T01:18:22.804Z,0
2023-02-04T01:19:39.096Z,0
2023-02-04T01:20:55.391Z,0
2023-02-04T01:23:27.976Z,0
2023-02-04T01:24:44.260Z,0
2023-02-04T01:26:00.547Z,0
2023-02-04T01:27:16.843Z,0
2023-02-04T01:28:32.162Z,0
2023-02-04T01:29:48.441Z,0
2023-02-04T01:31:04.745Z,0
2023-02-04T01:32:21.042Z,0
2023-02-04T01:33:37.330Z,0
2023-02-04T01:34:53.614Z,0
2023-02-04T01:36:09.926Z,0
2023-02-04T01:37:26.210Z,0
2023-02-04T01:38:42.494Z,0
2023-02-04T01:39:58.794Z,0
2023-02-04T01:42:31.389Z,0
2023-02-04T01:43:47.685Z,0
2023-02-04T01:45:02.985Z,0
2023-02-04T01:46:19.282Z,0
2023-02-04T01:47:35.564Z,0
2023-02-04T01:48:51.865Z,0
2023-02-04T01:50:08.148Z,0
2023-02-04T01:51:24.460Z,0
2023-02-04T01:52:40.746Z,0
2023-02-04T01:53:57.041Z,0
2023-02-04T01:55:13.322Z,0
2023-02-04T01:56:29.624Z,0
2023-02-04T01:57:45.926Z,0
2023-02-04T01:59:02.209Z,0
2023-02-04T02:00:18.514Z,0
2023-02-04T02:01:33.817Z,0
2023-02-04T02:02:50.110Z,0
2023-02-04T02:04:06.398Z,0
2023-02-04T02:05:22.689Z,0
2023-02-04T02:06:38.979Z,0
2023-02-04T02:07:55.282Z,0
2023-02-04T02:09:11.585Z,0
2023-02-04T02:10:27.866Z,0
2023-02-04T02:11:44.159Z,0
2023-02-04T02:13:00.462Z,0
2023-02-04T02:14:16.742Z,0
2023-02-04T02:15:33.043Z,0
2023-02-04T02:16:49.329Z,0
2023-02-04T02:18:04.651Z,0
2023-02-04T02:19:20.926Z,0
2023-02-04T02:20:37.221Z,0
2023-02-04T02:21:53.513Z,0
2023-02-04T02:23:09.826Z,0
2023-02-04T02:24:26.108Z,0
2023-02-04T02:25:42.399Z,0
2023-02-04T02:26:58.690Z,0
2023-02-04T02:28:14.980Z,0
2023-02-04T02:29:31.280Z,0
2023-02-04T02:30:47.581Z,0
2023-02-04T02:32:03.872Z,0
2023-02-04T02:33:20.167Z,0
2023-02-04T02:34:35.467Z,0
2023-02-04T02:35:51.767Z,0
2023-02-04T02:37:08.069Z,0
2023-02-04T02:38:24.342Z,0
2023-02-04T02:39:40.648Z,0
2023-02-04T02:40:56.948Z,0
2023-02-04T02:42:13.221Z,0
2023-02-04T02:43:29.535Z,0
2023-02-04T02:44:45.820Z,0
2023-02-04T02:46:02.111Z,0
2023-02-04T02:47:18.401Z,0
2023-02-04T02:48:34.691Z,0
2023-02-04T02:49:50.988Z,0
2023-02-04T02:51:06.292Z,0
2023-02-04T02:52:22.583Z,0
2023-02-04T02:54:55.185Z,0
2023-02-04T02:56:11.482Z,0
2023-02-04T02:57:27.763Z,0
2023-02-04T02:58:44.059Z,0
2023-02-04T03:00:00.347Z,0
2023-02-04T03:01:16.639Z,0
2023-02-04T03:02:32.936Z,0
2023-02-04T03:03:49.225Z,0
2023-02-04T03:05:05.530Z,0
2023-02-04T03:06:21.821Z,0
2023-02-04T03:07:37.132Z,0
2023-02-04T03:08:53.429Z,0
2023-02-04T03:10:09.723Z,0
2023-02-04T03:11:26.009Z,0
2023-02-04T03:12:42.300Z,0
2023-02-04T03:13:58.592Z,0
2023-02-04T03:15:14.885Z,0
2023-02-04T03:16:31.187Z,0
2023-02-04T03:17:47.475Z,0
2023-02-04T03:19:03.773Z,0
2023-02-04T03:20:20.066Z,0
2023-02-04T03:21:36.355Z,0
2023-02-04T03:22:52.643Z,0
2023-02-04T03:24:07.950Z,0
2023-02-04T03:25:24.257Z,0
2023-02-04T03:26:40.544Z,0
2023-02-04T03:27:56.847Z,0
2023-02-04T03:29:13.132Z,0
2023-02-04T03:30:29.422Z,0
2023-02-04T03:31:45.713Z,0
2023-02-04T03:33:02.007Z,0
2023-02-04T03:34:18.000Z,0
2023-02-04T03:35:34.590Z,0
2023-02-04T03:36:50.884Z,0
2023-02-04T03:38:07.178Z,0
2023-02-04T03:39:23.476Z,0
2023-02-04T03:40:38.788Z,0
2023-02-04T03:41:55.078Z,0
2023-02-04T03:43:11.369Z,0
2023-02-04T03:44:27.666Z,0
2023-02-04T03:45:43.965Z,0
2023-02-04T03:47:00.257Z,0
2023-02-04T03:48:16.545Z,0
2023-02-04T03:49:32.833Z,0
2023-02-04T03:50:49.130Z,0
2023-02-04T03:52:05.433Z,0
2023-02-04T03:53:21.729Z,0
2023-02-04T03:54:38.009Z,0
2023-02-04T03:55:54.299Z,0
2023-02-04T03:57:09.623Z,0
2023-02-04T03:58:25.907Z,0
2023-02-04T03:59:42.207Z,0
2023-02-04T04:00:58.490Z,0
2023-02-04T04:02:14.783Z,0
2023-02-04T04:03:31.085Z,0
2023-02-04T04:04:47.373Z,0
2023-02-04T04:06:03.659Z,0
2023-02-04T04:07:19.955Z,0
2023-02-04T04:09:52.556Z,0
2023-02-04T04:11:08.848Z,0
2023-02-04T04:12:25.134Z,0
2023-02-04T04:13:40.444Z,0
2023-02-04T04:14:56.737Z,0
2023-02-04T04:16:13.035Z,0
2023-02-04T04:17:29.327Z,0
2023-02-04T04:18:45.624Z,0
2023-02-04T04:20:01.913Z,0
2023-02-04T04:21:18.203Z,0
2023-02-04T04:22:34.495Z,0
2023-02-04T04:23:50.793Z,0
2023-02-04T04:25:07.089Z,0
2023-02-04T04:26:23.378Z,0
2023-02-04T04:27:39.661Z,0
2023-02-04T04:28:55.965Z,0
2023-02-04T04:30:11.281Z,0
2023-02-04T04:31:27.561Z,0
2023-02-04T04:32:43.862Z,0
2023-02-04T04:34:00.154Z,0
2023-02-04T04:35:16.444Z,0
2023-02-04T04:36:32.731Z,0
2023-02-04T04:37:49.036Z,0
2023-02-04T04:39:05.323Z,0
2023-02-04T04:40:21.615Z,0
2023-02-04T04:41:37.921Z,0
2023-02-04T04:42:54.206Z,0
2023-02-04T04:44:10.496Z,0
2023-02-04T04:45:26.783Z,0
2023-02-04T04:46:42.098Z,0
2023-02-04T04:47:58.402Z,0
2023-02-04T04:49:14.688Z,0
2023-02-04T04:50:30.985Z,0
2023-02-04T04:51:47.272Z,0
2023-02-04T04:53:03.566Z,0
2023-02-04T04:54:19.864Z,0
2023-02-04T04:55:36.150Z,0
2023-02-04T04:56:52.452Z,0
2023-02-04T04:58:08.748Z,0
2023-02-04T04:59:25.043Z,0
2023-02-04T05:00:41.329Z,0
2023-02-04T05:01:57.616Z,0
2023-02-04T05:03:12.931Z,0
2023-02-04T05:04:29.225Z,0
2023-02-04T05:05:45.520Z,0
2023-02-04T05:07:01.815Z,0
2023-02-04T05:08:18.095Z,0
2023-02-04T05:09:34.387Z,0
2023-02-04T05:10:49.722Z,0
2023-02-04T05:12:05.995Z,0
2023-02-04T05:13:22.310Z,0
2023-02-04T05:14:38.593Z,0
2023-02-04T05:15:54.876Z,0
2023-02-04T05:17:11.179Z,0
2023-02-04T05:18:27.477Z,0
2023-02-04T05:19:43.769Z,0
2023-02-04T05:21:00.048Z,0
2023-02-04T05:22:16.352Z,0
2023-02-04T05:23:32.652Z,0
2023-02-04T05:24:48.948Z,0
2023-02-04T05:26:05.229Z,0
2023-02-04T05:27:20.542Z,0
2023-02-04T05:28:36.840Z,0
2023-02-04T05:29:53.129Z,0
2023-02-04T05:31:09.412Z,0
2023-02-04T05:32:25.705Z,0
2023-02-04T05:33:42.005Z,0
2023-02-04T05:34:58.312Z,0
2023-02-04T05:36:14.596Z,0
2023-02-04T05:37:30.887Z,0
2023-02-04T05:38:47.187Z,0
2023-02-04T05:40:03.469Z,0
2023-02-04T05:41:19.762Z,0
2023-02-04T05:42:36.067Z,0
2023-02-04T05:43:51.375Z,0
2023-02-04T05:45:07.657Z,0
2023-02-04T05:46:23.958Z,0
2023-02-04T05:47:40.250Z,0
2023-02-04T05:48:56.545Z,0
2023-02-04T05:50:12.839Z,0
2023-02-04T05:51:29.123Z,0
2023-02-04T05:52:45.426Z,0
2023-02-04T05:54:01.708Z,0
2023-02-04T05:55:18.012Z,0
2023-02-04T05:56:34.295Z,0
2023-02-04T05:57:50.609Z,0
2023-02-04T05:59:06.884Z,0
2023-02-04T06:00:22.207Z,0
2023-02-04T06:01:38.486Z,0
2023-02-04T06:02:54.788Z,0
2023-02-04T06:04:11.083Z,0
2023-02-04T06:05:27.373Z,0
2023-02-04T06:06:43.675Z,0
2023-02-04T06:07:59.967Z,0
2023-02-04T06:09:16.249Z,0
2023-02-04T06:10:32.503Z,1
2023-02-04T06:11:48.738Z,1
2023-02-04T06:13:04.977Z,1
2023-02-04T06:14:21.286Z,0
2023-02-04T06:15:37.567Z,0
2023-02-04T06:16:52.877Z,0
2023-02-04T06:18:09.134Z,1
2023-02-04T06:19:25.384Z,1
2023-02-04T06:20:41.618Z,5
2023-02-04T06:21:57.844Z,2
2023-02-04T06:23:14.093Z,2
2023-02-04T06:24:30.332Z,2
2023-02-04T06:25:46.566Z,3
2023-02-04T06:27:02.808Z,4
2023-02-04T06:28:19.046Z,6
2023-02-04T06:29:35.287Z,9
2023-02-04T06:30:51.538Z,13
2023-02-04T06:32:07.765Z,13
2023-02-04T06:33:23.031Z,20
2023-02-04T06:34:39.260Z,22
2023-02-04T06:35:55.507Z,28
2023-02-04T06:37:11.751Z,33
2023-02-04T06:38:27.974Z,41
2023-02-04T06:39:44.229Z,45
2023-02-04T06:41:00.463Z,54
2023-02-04T06:42:16.699Z,58
2023-02-04T06:43:32.932Z,67
2023-02-04T06:44:49.182Z,78
2023-02-04T06:46:05.425Z,89
2023-02-04T06:47:21.648Z,94
2023-02-04T06:48:37.893Z,104
2023-02-04T06:49:53.143Z,119
2023-02-04T06:51:09.382Z,128
2023-02-04T06:52:25.635Z,142
2023-02-04T06:53:41.874Z,152
2023-02-04T06:54:58.106Z,137
2023-02-04T06:56:14.342Z,166
2023-02-04T06:57:30.596Z,218
2023-02-04T06:58:46.820Z,238
2023-02-04T07:00:03.058Z,231
2023-02-04T07:01:19.311Z,247
2023-02-04T07:02:35.555Z,265
2023-02-04T07:03:51.794Z,278
2023-02-04T07:05:08.030Z,293
2023-02-04T07:06:23.279Z,308
2023-02-04T07:07:39.527Z,325
2023-02-04T07:08:55.762Z,327
2023-02-04T07:10:11.998Z,353
2023-02-04T07:11:28.243Z,376
2023-02-04T07:12:44.466Z,364
2023-02-04T07:14:00.722Z,394
2023-02-04T07:15:16.953Z,421
2023-02-04T07:16:33.195Z,470
2023-02-04T07:17:49.429Z,432
2023-02-04T07:19:05.672Z,453
2023-02-04T07:20:21.903Z,521
2023-02-04T07:21:38.162Z,535
2023-02-04T07:22:53.406Z,516
2023-02-04T07:24:09.655Z,509
2023-02-04T07:25:25.897Z,561
2023-02-04T07:26:42.116Z,495
2023-02-04T07:27:58.366Z,483
2023-02-04T07:29:14.611Z,604
2023-02-04T07:30:30.852Z,750
2023-02-04T07:31:47.092Z,846
2023-02-04T07:33:03.326Z,911
2023-02-04T07:34:19.565Z,874
2023-02-04T07:35:35.809Z,728
2023-02-04T07:36:52.052Z,572
2023-02-04T07:38:08.275Z,666
2023-02-04T07:39:23.528Z,639
2023-02-04T07:40:39.782Z,1114
2023-02-04T07:41:56.021Z,906
2023-02-04T07:43:12.248Z,952
2023-02-04T07:44:28.503Z,852
2023-02-04T07:45:44.736Z,616
2023-02-04T07:47:00.980Z,762
2023-02-04T07:48:17.219Z,1210
2023-02-04T07:49:33.452Z,1118
2023-02-04T07:50:49.697Z,896
2023-02-04T07:52:05.935Z,969
2023-02-04T07:53:22.177Z,1113
2023-02-04T07:54:38.412Z,1072
2023-02-04T07:55:53.665Z,1010
2023-02-04T07:57:09.906Z,1110
2023-02-04T07:58:26.143Z,1113
2023-02-04T07:59:42.389Z,1050
2023-02-04T08:00:58.627Z,1069
2023-02-04T08:02:14.867Z,1069
2023-02-04T08:03:31.102Z,1071
2023-02-04T08:04:47.342Z,1099
2023-02-04T08:06:03.574Z,1104
2023-02-04T08:07:19.818Z,1118
2023-02-04T08:08:36.061Z,1178
2023-02-04T08:09:52.290Z,1273
2023-02-04T08:11:08.530Z,1197
2023-02-04T08:12:23.802Z,1237
2023-02-04T08:13:40.031Z,1313
2023-02-04T08:14:56.271Z,1299
2023-02-04T08:16:12.515Z,1305
2023-02-04T08:17:28.757Z,1337
2023-02-04T08:18:44.979Z,1366
2023-02-04T08:20:01.231Z,1398
2023-02-04T08:21:17.458Z,1417
2023-02-04T08:22:33.697Z,1423
2023-02-04T08:23:49.954Z,1449
2023-02-04T08:25:06.194Z,1471
2023-02-04T08:26:22.432Z,1499
2023-02-04T08:27:38.661Z,1523
2023-02-04T08:28:53.925Z,1507
2023-02-04T08:30:10.165Z,1540
2023-02-04T08:31:26.389Z,1535
2023-02-04T08:32:42.632Z,1559
2023-02-04T08:33:58.887Z,1547
2023-02-04T08:35:15.119Z,1603
2023-02-04T08:36:31.362Z,1600
2023-02-04T08:37:47.591Z,1572
2023-02-04T08:39:03.829Z,1667
2023-02-04T08:40:20.071Z,1862
2023-02-04T08:41:36.305Z,1750
2023-02-04T08:42:52.542Z,1647
2023-02-04T08:44:08.797Z,1888
2023-02-04T08:45:24.056Z,1594
2023-02-04T08:47:56.530Z,2060
2023-02-04T08:49:12.764Z,1852
2023-02-04T08:50:29.009Z,1680
2023-02-04T08:51:45.246Z,1823
2023-02-04T08:53:01.485Z,1150
2023-02-04T08:54:17.733Z,18793
2023-02-04T08:55:33.972Z,29382
2023-02-04T08:56:50.218Z,19808
2023-02-04T08:58:06.439Z,16838
2023-02-04T08:59:22.684Z,18001
2023-02-04T09:00:38.937Z,9549
2023-02-04T09:01:54.184Z,2626
2023-02-04T09:03:10.416Z,9754
2023-02-04T09:04:26.666Z,6966
2023-02-04T09:05:42.904Z,60174
2023-02-04T09:06:59.131Z,2720
2023-02-04T09:09:31.617Z,66539
2023-02-04T09:10:47.863Z,6338
2023-02-04T09:12:04.089Z,10621
2023-02-04T09:13:20.338Z,67858
2023-02-04T09:14:36.579Z,6821
2023-02-04T09:15:52.813Z,83144
2023-02-04T09:17:09.046Z,69039
2023-02-04T09:18:24.314Z,15749
2023-02-04T09:19:40.547Z,26870
2023-02-04T09:20:56.780Z,1735
2023-02-04T09:22:13.018Z,10627
2023-02-04T09:23:29.266Z,6934
2023-02-04T09:24:45.502Z,14994
2023-02-04T09:26:00.769Z,77766
2023-02-04T09:27:16.987Z,74195
2023-02-04T09:28:33.239Z,37690
2023-02-04T09:29:49.468Z,40740
2023-02-04T09:31:05.705Z,32124
2023-02-04T09:32:21.943Z,26690
2023-02-04T09:33:38.193Z,21938
2023-02-04T09:34:54.418Z,17434
2023-02-04T09:36:10.664Z,12574
2023-02-04T09:37:26.899Z,11251
2023-02-04T09:38:43.145Z,10931
2023-02-04T09:39:59.378Z,11313
2023-02-04T09:41:15.620Z,9561
2023-02-04T09:42:30.884Z,9583
2023-02-04T09:43:47.108Z,9034
2023-02-04T09:45:03.355Z,6225
2023-02-04T09:46:19.587Z,8288
2023-02-04T09:47:35.834Z,10280
2023-02-04T09:48:52.069Z,84388
2023-02-04T09:50:08.295Z,78823
2023-02-04T09:51:24.544Z,81795
2023-02-04T09:52:40.777Z,82172
2023-02-04T09:53:57.016Z,84992
2023-02-04T09:55:13.248Z,83664
2023-02-04T09:56:29.499Z,82853
2023-02-04T09:57:45.737Z,84947
2023-02-04T09:59:00.982Z,83625
2023-02-04T10:00:17.228Z,84288
2023-02-04T10:01:33.460Z,59911
2023-02-04T10:02:49.716Z,77439
2023-02-04T10:04:05.955Z,63836
2023-02-04T10:05:22.189Z,19352
2023-02-04T10:06:38.429Z,13799
2023-02-04T10:07:54.677Z,24100
2023-02-04T10:09:10.906Z,10200
2023-02-04T10:10:27.149Z,5341
2023-02-04T10:11:43.374Z,2201
2023-02-04T10:12:59.626Z,4260
2023-02-04T10:14:15.856Z,20401
2023-02-04T10:15:31.124Z,4941
2023-02-04T10:16:47.352Z,5992
2023-02-04T10:18:03.594Z,69052
2023-02-04T10:19:19.826Z,18519
2023-02-04T10:20:36.060Z,3617
2023-02-04T10:21:52.302Z,3074
2023-02-04T10:23:08.555Z,2725
2023-02-04T10:24:24.777Z,2356
2023-02-04T10:25:41.031Z,2565
2023-02-04T10:26:57.251Z,2650
2023-02-04T10:28:13.490Z,3018
2023-02-04T10:29:29.737Z,3027
2023-02-04T10:30:45.970Z,3425
2023-02-04T10:32:01.227Z,2173
2023-02-04T10:33:17.470Z,2056
2023-02-04T10:34:33.711Z,17870
2023-02-04T10:35:49.954Z,17298
2023-02-04T10:37:06.187Z,17883
2023-02-04T10:38:22.417Z,10544
2023-02-04T10:39:38.664Z,5489
2023-02-04T10:40:54.893Z,3197
2023-02-04T10:42:11.147Z,4878
2023-02-04T10:43:27.385Z,1314
2023-02-04T10:44:43.621Z,2197
2023-02-04T10:45:59.859Z,9910
2023-02-04T10:47:16.092Z,19249
2023-02-04T10:48:31.356Z,82129
2023-02-04T10:49:47.591Z,83855
2023-02-04T10:51:03.823Z,79016
2023-02-04T10:52:20.056Z,58051
2023-02-04T10:53:36.306Z,3208
2023-02-04T10:54:52.534Z,6178
2023-02-04T10:56:08.785Z,4404
2023-02-04T10:57:25.011Z,3352
2023-02-04T10:58:41.254Z,5275
2023-02-04T10:59:57.499Z,3387
2023-02-04T11:01:13.729Z,23984
2023-02-04T11:02:29.962Z,4046
2023-02-04T11:03:46.207Z,2236
2023-02-04T11:05:01.464Z,1437
2023-02-04T11:06:17.693Z,1053
2023-02-04T11:07:33.943Z,1487
2023-02-04T11:08:50.182Z,1748
2023-02-04T11:10:06.425Z,2446
2023-02-04T11:11:22.647Z,2750
2023-02-04T11:12:38.895Z,2407
2023-02-04T11:13:55.122Z,2025
2023-02-04T11:15:11.365Z,1074
2023-02-04T11:16:27.619Z,3306
2023-02-04T11:17:43.857Z,1910
2023-02-04T11:19:00.077Z,1774
2023-02-04T11:20:16.315Z,1539
2023-02-04T11:21:31.578Z,1249
2023-02-04T11:22:47.823Z,1031
2023-02-04T11:24:04.060Z,1246
2023-02-04T11:25:20.302Z,1515
2023-02-04T11:26:36.525Z,1710
2023-02-04T11:27:52.771Z,1643
2023-02-04T11:29:09.008Z,1684
2023-02-04T11:30:25.256Z,1582
2023-02-04T11:31:41.489Z,1355
2023-02-04T11:32:57.726Z,1976
2023-02-04T11:34:13.971Z,31817
2023-02-04T11:35:30.219Z,29113
2023-02-04T11:36:46.447Z,9299
2023-02-04T11:38:01.707Z,3027
2023-02-04T11:39:17.948Z,2419
2023-02-04T11:40:34.191Z,15718
2023-02-04T11:41:50.420Z,4168
2023-02-04T11:43:06.664Z,2234
2023-02-04T11:44:22.897Z,13568
2023-02-04T11:45:39.132Z,14978
2023-02-04T11:46:55.384Z,2879
2023-02-04T11:48:11.613Z,2267
2023-02-04T11:49:27.851Z,2284
2023-02-04T11:50:44.100Z,1986
2023-02-04T11:52:00.338Z,1849
2023-02-04T11:53:16.570Z,2179
2023-02-04T11:54:31.838Z,74480
2023-02-04T11:55:48.075Z,75016
2023-02-04T11:57:04.324Z,61966
2023-02-04T11:58:20.545Z,4990
2023-02-04T11:59:36.798Z,23379
2023-02-04T12:00:53.025Z,3392
2023-02-04T12:02:09.266Z,2413
2023-02-04T12:03:25.513Z,1932
2023-02-04T12:04:41.755Z,1548
2023-02-04T12:05:57.979Z,1458
2023-02-04T12:07:14.217Z,1395
2023-02-04T12:08:30.453Z,1678
2023-02-04T12:09:46.695Z,1723
2023-02-04T12:11:01.948Z,1178
2023-02-04T12:12:18.187Z,2565
2023-02-04T12:13:34.442Z,1036
2023-02-04T12:14:50.671Z,6048
2023-02-04T12:16:06.907Z,16084
2023-02-04T12:17:23.146Z,17315
2023-02-04T12:18:39.380Z,15967
2023-02-04T12:19:55.630Z,15028
2023-02-04T12:21:11.876Z,14521
2023-02-04T12:22:28.102Z,15366
2023-02-04T12:23:44.345Z,17393
2023-02-04T12:25:00.575Z,8703
2023-02-04T12:26:16.814Z,4325
2023-02-04T12:27:32.083Z,3376
2023-02-04T12:28:48.319Z,2747
2023-02-04T12:30:04.542Z,1594
2023-02-04T12:31:20.799Z,17857
2023-02-04T12:32:37.036Z,17162
2023-02-04T12:33:53.278Z,15201
2023-02-04T12:35:09.517Z,14913
2023-02-04T12:36:25.744Z,16021
2023-02-04T12:37:41.979Z,15853
2023-02-04T12:38:58.213Z,15473
2023-02-04T12:41:30.695Z,15484
2023-02-04T12:44:03.187Z,13961
2023-02-04T12:45:18.436Z,14023
2023-02-04T12:46:34.674Z,15696
2023-02-04T12:47:50.908Z,17425
2023-02-04T12:49:07.145Z,18888
2023-02-04T12:50:23.378Z,15199
2023-02-04T12:51:39.627Z,16868
2023-02-04T12:52:55.869Z,15814
2023-02-04T12:54:12.091Z,11986
2023-02-04T12:55:28.344Z,11214
2023-02-04T12:56:44.569Z,12627
2023-02-04T12:58:00.827Z,13594
2023-02-04T12:59:17.045Z,16725
2023-02-04T13:00:33.302Z,15491
2023-02-04T13:01:48.547Z,18655
2023-02-04T13:03:04.792Z,15909
2023-02-04T13:04:21.026Z,9635
2023-02-04T13:05:37.274Z,11932
2023-02-04T13:06:53.493Z,15899
2023-02-04T13:08:09.732Z,15281
2023-02-04T13:09:25.977Z,14929
2023-02-04T13:10:42.221Z,16997
2023-02-04T13:11:58.461Z,14107
2023-02-04T13:13:14.691Z,10275
2023-02-04T13:14:30.925Z,11314
2023-02-04T13:15:47.172Z,11680
2023-02-04T13:17:03.406Z,12401
2023-02-04T13:19:34.893Z,16549
2023-02-04T13:20:51.150Z,15391
2023-02-04T13:22:07.385Z,11266
2023-02-04T13:23:23.611Z,13569
2023-02-04T13:24:39.851Z,14925
2023-02-04T13:25:56.092Z,12839
2023-02-04T13:27:12.343Z,14299
2023-02-04T13:28:28.574Z,15154
2023-02-04T13:29:44.811Z,13259
2023-02-04T13:31:01.046Z,13453
2023-02-04T13:32:17.287Z,15320
2023-02-04T13:33:33.517Z,13502
2023-02-04T13:34:49.766Z,13152
2023-02-04T13:36:05.011Z,14445
2023-02-04T13:37:21.249Z,10975
2023-02-04T13:38:37.496Z,3249
2023-02-04T13:39:53.733Z,1225
2023-02-04T13:41:08.988Z,3891
2023-02-04T13:42:25.236Z,2202
2023-02-04T13:43:41.469Z,1756
2023-02-04T13:44:57.716Z,9262
2023-02-04T13:46:13.964Z,8375
2023-02-04T13:47:30.206Z,1949
2023-02-04T13:48:46.440Z,9582
2023-02-04T13:50:02.677Z,8628
2023-02-04T13:51:18.927Z,1403
2023-02-04T13:52:35.156Z,1550
2023-02-04T13:53:51.410Z,1333
2023-02-04T13:55:07.633Z,1124
2023-02-04T13:56:23.881Z,1050
2023-02-04T13:57:39.128Z,1001
2023-02-04T13:58:55.379Z,942
2023-02-04T14:00:11.603Z,892
2023-02-04T14:01:27.853Z,856
2023-02-04T14:02:44.082Z,830
2023-02-04T14:04:00.331Z,810
2023-02-04T14:05:16.000Z,800
2023-02-04T14:06:32.802Z,813
2023-02-04T14:07:49.047Z,859
2023-02-04T14:09:05.287Z,960
2023-02-04T14:10:21.528Z,10443
2023-02-04T14:11:37.769Z,4910
2023-02-04T14:12:54.009Z,18028
2023-02-04T14:14:09.257Z,10864
2023-02-04T14:16:41.737Z,935
2023-02-04T14:17:57.978Z,843
2023-02-04T14:19:14.223Z,811
2023-02-04T14:20:30.455Z,796
2023-02-04T14:21:46.686Z,776
2023-02-04T14:23:02.930Z,747
2023-02-04T14:24:19.165Z,721
2023-02-04T14:25:35.411Z,702
2023-02-04T14:26:51.000Z,695
2023-02-04T14:28:07.886Z,697
2023-02-04T14:29:24.129Z,706
2023-02-04T14:30:39.388Z,722
2023-02-04T14:31:55.632Z,789
2023-02-04T14:33:11.854Z,813
2023-02-04T14:34:28.101Z,992
2023-02-04T14:35:44.336Z,848
2023-02-04T14:37:00.571Z,263
2023-02-04T14:38:16.835Z,3849
2023-02-04T14:39:33.058Z,7893
2023-02-04T14:40:49.298Z,5629
2023-02-04T14:42:05.549Z,2245
2023-02-04T14:43:21.792Z,5500
2023-02-04T14:44:38.030Z,978
2023-02-04T14:45:54.269Z,801
2023-02-04T14:47:09.519Z,716
2023-02-04T14:48:25.746Z,687
2023-02-04T14:49:41.989Z,681
2023-02-04T14:50:58.242Z,676
2023-02-04T14:52:14.479Z,676
2023-02-04T14:53:30.717Z,663
2023-02-04T14:54:46.953Z,647
2023-02-04T14:56:03.181Z,663
2023-02-04T14:57:19.423Z,697
2023-02-04T14:58:35.664Z,263
2023-02-04T14:59:51.905Z,730
2023-02-04T15:01:08.141Z,1075
2023-02-04T15:02:24.377Z,1158
2023-02-04T15:03:39.644Z,1287
2023-02-04T15:04:55.882Z,1216
2023-02-04T15:06:12.115Z,1078
2023-02-04T15:07:28.353Z,889
2023-02-04T15:08:44.590Z,780
2023-02-04T15:10:00.832Z,702
2023-02-04T15:11:17.064Z,744
2023-02-04T15:12:33.319Z,670
2023-02-04T15:13:49.558Z,501
2023-02-04T15:15:05.782Z,585
2023-02-04T15:16:22.025Z,506
2023-02-04T15:17:38.263Z,684
2023-02-04T15:18:54.510Z,715
2023-02-04T15:20:09.756Z,643
2023-02-04T15:21:26.002Z,554
2023-02-04T15:22:42.230Z,529
2023-02-04T15:23:58.481Z,412
2023-02-04T15:25:14.712Z,352
2023-02-04T15:26:30.960Z,459
2023-02-04T15:27:47.196Z,435
2023-02-04T15:29:03.443Z,398
2023-02-04T15:30:19.668Z,400
2023-02-04T15:31:35.910Z,386
2023-02-04T15:32:52.140Z,358
2023-02-04T15:34:08.394Z,342
2023-02-04T15:35:24.625Z,329
2023-02-04T15:36:39.878Z,308
2023-02-04T15:37:56.129Z,298
2023-02-04T15:39:12.355Z,283
2023-02-04T15:40:28.610Z,274
2023-02-04T15:41:44.839Z,269
2023-02-04T15:43:01.087Z,247
2023-02-04T15:44:17.313Z,237
2023-02-04T15:45:33.557Z,223
2023-02-04T15:46:49.804Z,200
2023-02-04T15:48:06.045Z,165
2023-02-04T15:49:22.275Z,145
2023-02-04T15:50:38.522Z,146
2023-02-04T15:51:54.751Z,133
2023-02-04T15:53:10.008Z,76
2023-02-04T15:54:26.239Z,51
2023-02-04T15:55:42.476Z,71
2023-02-04T15:56:58.728Z,98
2023-02-04T15:58:14.956Z,72
2023-02-04T15:59:31.199Z,35
2023-02-04T16:00:47.446Z,41
2023-02-04T16:02:03.679Z,59
2023-02-04T16:03:19.915Z,46
2023-02-04T16:04:36.150Z,40
2023-02-04T16:05:52.408Z,38
2023-02-04T16:07:08.632Z,41
2023-02-04T16:08:24.872Z,38
2023-02-04T16:09:40.132Z,36
2023-02-04T16:10:56.364Z,32
2023-02-04T16:12:12.574Z,29
2023-02-04T16:13:28.805Z,25
2023-02-04T16:14:45.054Z,30
2023-02-04T16:16:01.283Z,25
2023-02-04T16:17:17.526Z,19
2023-02-04T16:18:33.768Z,18
2023-02-04T16:19:49.999Z,17
2023-02-04T16:21:06.249Z,11
2023-02-04T16:22:22.487Z,10
2023-02-04T16:23:38.718Z,10
2023-02-04T16:24:54.969Z,7
2023-02-04T16:26:10.213Z,4
2023-02-04T16:27:26.451Z,7
2023-02-04T16:28:42.698Z,4
2023-02-04T16:29:58.926Z,3
2023-02-04T16:31:15.186Z,3
2023-02-04T16:32:31.422Z,2
2023-02-04T16:33:47.653Z,2
2023-02-04T16:35:03.885Z,1
2023-02-04T16:36:20.141Z,2
2023-02-04T16:37:36.369Z,1
2023-02-04T16:38:52.609Z,1
2023-02-04T16:40:08.903Z,0
2023-02-04T16:41:25.204Z,0
2023-02-04T16:42:40.518Z,0
2023-02-04T16:43:56.803Z,0
2023-02-04T16:45:13.103Z,0
2023-02-04T16:46:29.388Z,0
2023-02-04T16:47:45.684Z,0
2023-02-04T16:49:01.981Z,0
2023-02-04T16:50:18.262Z,0
2023-02-04T16:51:34.571Z,0
2023-02-04T16:52:50.856Z,0
2023-02-04T16:54:07.149Z,0
2023-02-04T16:55:23.451Z,0
2023-02-04T16:56:39.736Z,0
2023-02-04T16:57:56.038Z,0
2023-02-04T16:59:11.339Z,0
2023-02-04T17:00:27.633Z,0
2023-02-04T17:01:43.932Z,0
2023-02-04T17:03:00.213Z,0
2023-02-04T17:04:16.508Z,0
2023-02-04T17:05:32.814Z,0
2023-02-04T17:06:49.093Z,0
2023-02-04T17:08:05.397Z,0
2023-02-04T17:09:21.686Z,0
2023-02-04T17:10:37.987Z,0
2023-02-04T17:11:54.276Z,0
2023-02-04T17:13:10.566Z,0
2023-02-04T17:14:26.862Z,0
2023-02-04T17:15:42.171Z,0
2023-02-04T17:16:58.452Z,0
2023-02-04T17:18:14.760Z,0
2023-02-04T17:19:31.049Z,0
2023-02-04T17:20:47.338Z,0
2023-02-04T17:22:03.642Z,0
2023-02-04T17:23:19.937Z,0
2023-02-04T17:24:36.232Z,0
2023-02-04T17:25:52.523Z,0
2023-02-04T17:27:08.812Z,0
2023-02-04T17:28:25.109Z,0
2023-02-04T17:29:41.389Z,0
2023-02-04T17:30:57.694Z,0
2023-02-04T17:32:13.001Z,0
2023-02-04T17:33:29.286Z,0
2023-02-04T17:34:45.597Z,0
2023-02-04T17:36:01.876Z,0
2023-02-04T17:37:18.170Z,0
2023-02-04T17:38:34.462Z,0
2023-02-04T17:39:50.770Z,0
2023-02-04T17:41:07.055Z,0
2023-02-04T17:42:23.343Z,0
2023-02-04T17:43:39.649Z,0
2023-02-04T17:44:55.932Z,0
2023-02-04T17:46:12.223Z,0
2023-02-04T17:47:28.531Z,0
2023-02-04T17:48:43.834Z,0
2023-02-04T17:50:00.128Z,0
2023-02-04T17:51:16.416Z,0
2023-02-04T17:52:32.711Z,0
2023-02-04T17:53:49.014Z,0
2023-02-04T17:55:05.302Z,0
2023-02-04T17:56:20.604Z,0
2023-02-04T17:57:36.909Z,0
2023-02-04T17:58:53.196Z,0
2023-02-04T18:00:09.502Z,0